Time;durP1;ratioP1;P1;durP2;ratioP2;P2;SDS_P1;SDS_P2;PMS_P1;PMS_P2;Temp;Humidity;BMP_temperature;BMP_pressure;BME280_temperature;BME280_humidity;BME280_pressure;Samples;Min_cycle;Max_cycle;Signal;HPM_P1;HPM_P2
2024/01/26 00:00:23;;;;;;;23.80;6.97;;;5.60;99.90;;;;;;5034674;28;20243;-53
2024/01/26 00:02:50;;;;;;;24.40;7.30;;;5.60;99.90;;;;;;5035000;28;20273;-52
2024/01/26 00:05:18;;;;;;;22.60;6.20;;;5.60;99.90;;;;;;5032180;28;20223;-51
2024/01/26 00:07:45;;;;;;;24.90;7.13;;;5.60;99.90;;;;;;5036655;28;20617;-52
2024/01/26 00:10:12;;;;;;;20.30;5.63;;;5.60;99.90;;;;;;5036831;28;20222;-49
2024/01/26 00:12:38;;;;;;;22.70;7.90;;;5.60;99.90;;;;;;5005343;28;20214;-53
2024/01/26 00:15:06;;;;;;;26.17;6.10;;;5.60;99.90;;;;;;5035819;28;20183;-48
2024/01/26 00:17:33;;;;;;;26.10;7.47;;;5.60;99.90;;;;;;5037018;28;20608;-49
2024/01/26 00:19:59;;;;;;;18.40;6.20;;;5.60;99.90;;;;;;5032210;28;20211;-51
2024/01/26 00:22:28;;;;;;;33.77;7.80;;;5.60;99.90;;;;;;5028416;28;20196;-54
2024/01/26 00:24:54;;;;;;;25.47;6.27;;;5.70;99.90;;;;;;5031733;28;20202;-51
2024/01/26 00:27:21;;;;;;;20.97;6.57;;;5.70;99.90;;;;;;5003508;28;20235;-52
2024/01/26 00:29:48;;;;;;;22.87;6.97;;;5.70;99.90;;;;;;5027069;28;20192;-49
2024/01/26 00:32:15;;;;;;;22.20;6.03;;;5.70;99.90;;;;;;5035567;28;20206;-53
2024/01/26 00:34:42;;;;;;;28.13;5.97;;;5.70;99.90;;;;;;5021012;28;20227;-49
2024/01/26 00:37:08;;;;;;;27.60;6.90;;;5.70;99.90;;;;;;5027571;28;20207;-51
2024/01/26 00:39:37;;;;;;;25.93;6.93;;;5.70;99.90;;;;;;5029456;28;20208;-51
2024/01/26 00:42:04;;;;;;;24.53;6.83;;;5.70;99.90;;;;;;5031947;28;20857;-50
2024/01/26 00:44:31;;;;;;;25.17;6.97;;;5.70;99.90;;;;;;5004036;28;20204;-49
2024/01/26 00:46:57;;;;;;;17.20;6.70;;;5.70;99.90;;;;;;5030918;28;20345;-48
2024/01/26 00:49:24;;;;;;;19.73;6.77;;;5.80;99.90;;;;;;5034618;28;20195;-50
2024/01/26 00:51:51;;;;;;;26.77;6.97;;;5.70;99.90;;;;;;5025233;28;20231;-48
2024/01/26 00:54:18;;;;;;;23.60;6.47;;;5.70;99.90;;;;;;5027745;28;20250;-48
2024/01/26 00:56:46;;;;;;;18.33;6.37;;;5.70;99.90;;;;;;5028739;28;20216;-52
2024/01/26 00:59:13;;;;;;;26.20;6.40;;;5.70;99.90;;;;;;5003509;28;20210;-48
2024/01/26 01:01:40;;;;;;;19.40;6.43;;;5.80;99.90;;;;;;5034048;28;20277;-52
2024/01/26 01:04:07;;;;;;;29.73;6.80;;;5.80;99.90;;;;;;5037222;28;20187;-49
2024/01/26 01:06:33;;;;;;;24.87;7.00;;;5.80;99.90;;;;;;5040037;28;20187;-48
2024/01/26 01:09:00;;;;;;;30.47;6.93;;;5.80;99.90;;;;;;5028749;28;20207;-52
2024/01/26 01:11:27;;;;;;;21.67;6.07;;;5.80;99.90;;;;;;5039582;28;20280;-51
2024/01/26 01:13:57;;;;;;;24.87;6.17;;;5.80;99.90;;;;;;5043226;28;20199;-47
2024/01/26 01:16:23;;;;;;;25.27;7.00;;;5.80;99.90;;;;;;5011855;28;20600;-52
2024/01/26 01:18:50;;;;;;;22.13;6.17;;;5.80;99.90;;;;;;5044020;28;20230;-49
2024/01/26 01:21:17;;;;;;;24.43;6.43;;;5.80;99.90;;;;;;5042612;28;20298;-52
2024/01/26 01:23:44;;;;;;;28.50;6.30;;;5.80;99.90;;;;;;5038708;28;20217;-51
2024/01/26 01:26:11;;;;;;;20.50;6.60;;;5.80;99.90;;;;;;5041435;28;20245;-48
2024/01/26 01:28:38;;;;;;;23.63;6.47;;;5.80;99.90;;;;;;5034514;28;20275;-48
2024/01/26 01:31:06;;;;;;;24.50;6.70;;;5.80;99.90;;;;;;5013370;28;20281;-48
2024/01/26 01:33:33;;;;;;;20.47;7.23;;;5.80;99.90;;;;;;5035727;28;20192;-51
2024/01/26 01:36:00;;;;;;;21.27;5.97;;;5.80;99.90;;;;;;5044379;28;20715;-48
2024/01/26 01:38:27;;;;;;;29.67;7.70;;;5.80;99.90;;;;;;5033982;28;20204;-52
2024/01/26 01:40:54;;;;;;;29.77;7.10;;;5.80;99.90;;;;;;5041589;28;20262;-51
2024/01/26 01:43:21;;;;;;;26.70;7.40;;;5.80;99.90;;;;;;5042255;28;20729;-49
2024/01/26 01:45:47;;;;;;;22.70;7.00;;;5.80;99.90;;;;;;5016512;28;20195;-48
2024/01/26 01:48:16;;;;;;;24.07;6.20;;;5.80;99.90;;;;;;5038311;28;20606;-53
2024/01/26 01:50:43;;;;;;;22.73;6.63;;;5.80;99.90;;;;;;5030098;28;20322;-49
2024/01/26 01:53:12;;;;;;;27.87;7.60;;;5.80;99.90;;;;;;5026488;28;20614;-50
2024/01/26 01:55:41;;;;;;;23.57;7.10;;;5.80;99.90;;;;;;5031887;28;20980;-48
2024/01/26 01:58:09;;;;;;;25.47;7.23;;;5.80;99.90;;;;;;5036078;28;20253;-49
2024/01/26 02:00:36;;;;;;;26.67;8.23;;;5.80;99.90;;;;;;5001802;28;20247;-52
2024/01/26 02:03:02;;;;;;;38.70;8.73;;;5.80;99.90;;;;;;5038294;28;20264;-49
2024/01/26 02:05:31;;;;;;;26.23;7.93;;;5.80;99.90;;;;;;5027946;28;20196;-52
2024/01/26 02:07:57;;;;;;;26.83;7.47;;;5.80;99.90;;;;;;5029032;28;20557;-52
2024/01/26 02:10:25;;;;;;;26.00;7.47;;;5.80;99.90;;;;;;5043146;28;20213;-51
2024/01/26 02:12:51;;;;;;;22.07;6.77;;;5.80;99.90;;;;;;5036157;28;20257;-51
2024/01/26 02:15:18;;;;;;;26.43;7.43;;;5.80;99.90;;;;;;5036451;28;20223;-51
2024/01/26 02:17:45;;;;;;;28.00;7.90;;;5.80;99.90;;;;;;5006468;28;20930;-48
2024/01/26 02:20:12;;;;;;;22.10;6.93;;;5.80;99.90;;;;;;5040800;28;20211;-51
2024/01/26 02:22:40;;;;;;;22.47;8.13;;;5.80;99.90;;;;;;5036071;28;20207;-48
2024/01/26 02:25:09;;;;;;;27.20;7.37;;;5.80;99.90;;;;;;5037161;28;20199;-48
2024/01/26 02:27:36;;;;;;;22.37;8.10;;;5.80;99.90;;;;;;5037585;28;20191;-52
2024/01/26 02:30:03;;;;;;;23.57;8.83;;;5.80;99.90;;;;;;5037088;28;20662;-48
2024/01/26 02:32:30;;;;;;;30.17;9.23;;;5.80;99.90;;;;;;5012549;28;20227;-53
2024/01/26 02:34:57;;;;;;;24.83;7.87;;;5.80;99.90;;;;;;5034933;28;20284;-50
2024/01/26 02:37:23;;;;;;;28.93;8.07;;;5.80;99.90;;;;;;5041438;28;20219;-53
2024/01/26 02:39:50;;;;;;;25.80;7.93;;;5.90;99.90;;;;;;5031985;28;20199;-49
2024/01/26 02:42:18;;;;;;;27.13;7.97;;;5.90;99.90;;;;;;5036486;28;20191;-52
2024/01/26 02:44:45;;;;;;;27.97;8.03;;;5.90;99.90;;;;;;5013999;28;20195;-48
2024/01/26 02:47:12;;;;;;;25.17;8.43;;;5.90;99.90;;;;;;5018844;28;20201;-53
2024/01/26 02:49:42;;;;;;;34.73;8.63;;;5.90;99.90;;;;;;5003298;28;20301;-52
2024/01/26 02:52:09;;;;;;;36.20;9.53;;;5.90;99.90;;;;;;5029147;28;20199;-50
2024/01/26 02:54:36;;;;;;;28.43;8.73;;;5.90;99.90;;;;;;5021785;28;20184;-50
2024/01/26 02:57:03;;;;;;;27.47;8.57;;;5.90;99.90;;;;;;5040913;28;20219;-49
2024/01/26 02:59:31;;;;;;;27.30;9.17;;;6.00;99.90;;;;;;5029775;28;20192;-51
2024/01/26 03:01:58;;;;;;;27.07;8.47;;;6.00;99.90;;;;;;5032822;28;20281;-50
2024/01/26 03:04:24;;;;;;;25.27;8.67;;;6.00;99.90;;;;;;5014107;28;20684;-53
2024/01/26 03:06:51;;;;;;;26.47;8.97;;;6.00;99.90;;;;;;5035172;28;20210;-52
2024/01/26 03:09:18;;;;;;;33.43;9.87;;;6.00;99.90;;;;;;5034697;28;20656;-51
2024/01/26 03:11:46;;;;;;;33.83;10.20;;;6.00;99.90;;;;;;5026688;28;20268;-49
2024/01/26 03:14:15;;;;;;;29.30;10.17;;;6.00;99.90;;;;;;5038172;28;20199;-51
2024/01/26 03:16:43;;;;;;;24.43;8.50;;;6.10;99.90;;;;;;5036628;28;20207;-49
2024/01/26 03:19:10;;;;;;;28.23;8.97;;;6.10;99.90;;;;;;5011830;28;20226;-50
2024/01/26 03:21:42;;;;;;;24.77;9.10;;;6.10;99.90;;;;;;5029775;28;20841;-49
2024/01/26 03:24:09;;;;;;;28.53;8.23;;;6.10;99.90;;;;;;5036265;28;20202;-53
2024/01/26 03:26:37;;;;;;;35.20;9.73;;;6.10;99.90;;;;;;5031942;28;20877;-51
2024/01/26 03:29:03;;;;;;;26.47;9.20;;;6.10;99.90;;;;;;5042144;28;20202;-49
2024/01/26 03:31:30;;;;;;;26.87;9.50;;;6.10;99.90;;;;;;5035805;28;20215;-48
2024/01/26 03:33:59;;;;;;;30.10;9.67;;;6.10;99.90;;;;;;5011020;28;20203;-52
2024/01/26 03:36:25;;;;;;;33.23;8.83;;;6.20;99.90;;;;;;5030772;28;20226;-48
2024/01/26 03:38:52;;;;;;;29.53;10.07;;;6.20;99.90;;;;;;5040762;28;20260;-52
2024/01/26 03:41:19;;;;;;;30.07;10.80;;;6.20;99.90;;;;;;5030263;28;20279;-53
2024/01/26 03:43:46;;;;;;;27.37;10.30;;;6.20;99.90;;;;;;5040405;28;20270;-51
2024/01/26 03:46:14;;;;;;;28.30;9.10;;;6.20;99.90;;;;;;5034033;28;20207;-49
2024/01/26 03:48:41;;;;;;;27.37;9.77;;;6.20;99.90;;;;;;5028736;28;20194;-49
2024/01/26 03:51:09;;;;;;;32.40;10.03;;;6.20;99.90;;;;;;5005025;28;20223;-48
2024/01/26 03:53:35;;;;;;;30.63;10.07;;;6.30;99.90;;;;;;5029128;28;20208;-48
2024/01/26 03:56:02;;;;;;;27.90;9.60;;;6.20;99.90;;;;;;5028697;28;20219;-51
2024/01/26 03:58:29;;;;;;;26.33;10.00;;;6.30;99.90;;;;;;5020305;28;20254;-53
2024/01/26 04:00:56;;;;;;;22.53;9.57;;;6.30;99.90;;;;;;5029664;28;20627;-50
2024/01/26 04:03:23;;;;;;;32.33;10.57;;;6.30;99.90;;;;;;5025893;28;20188;-48
2024/01/26 04:05:49;;;;;;;27.93;10.50;;;6.30;99.90;;;;;;5010237;28;20199;-49
2024/01/26 04:08:18;;;;;;;37.37;11.57;;;6.30;99.90;;;;;;5044806;28;20214;-51
2024/01/26 04:10:45;;;;;;;30.43;10.40;;;6.30;99.90;;;;;;5037291;28;20214;-48
2024/01/26 04:13:11;;;;;;;37.10;12.93;;;6.30;99.90;;;;;;5034272;28;20744;-49
2024/01/26 04:15:39;;;;;;;36.20;11.67;;;6.30;99.90;;;;;;5045117;28;20326;-50
2024/01/26 04:18:06;;;;;;;34.13;11.93;;;6.40;99.90;;;;;;5040965;28;20220;-48
2024/01/26 04:20:33;;;;;;;29.87;10.07;;;6.30;99.90;;;;;;5004380;28;20561;-50
2024/01/26 04:23:00;;;;;;;31.73;11.57;;;6.40;99.90;;;;;;5037760;28;20203;-51
2024/01/26 04:25:28;;;;;;;23.83;11.00;;;6.30;99.90;;;;;;5035344;28;20196;-50
2024/01/26 04:27:55;;;;;;;31.60;11.17;;;6.40;99.90;;;;;;5023289;28;20192;-50
2024/01/26 04:30:22;;;;;;;30.10;11.27;;;6.40;99.90;;;;;;5033933;28;20226;-49
2024/01/26 04:32:50;;;;;;;30.70;11.20;;;6.40;99.90;;;;;;5033491;28;20210;-51
2024/01/26 04:35:17;;;;;;;34.27;11.63;;;6.40;99.90;;;;;;5032551;28;20281;-47
2024/01/26 04:37:43;;;;;;;30.70;10.53;;;6.50;99.90;;;;;;5018761;28;21000;-48
2024/01/26 04:40:12;;;;;;;32.53;10.97;;;6.40;99.90;;;;;;5036984;28;20248;-49
2024/01/26 04:42:40;;;;;;;30.13;11.17;;;6.50;99.90;;;;;;5034975;28;20191;-48
2024/01/26 04:45:08;;;;;;;32.97;11.50;;;6.50;99.90;;;;;;5030892;28;20569;-48
2024/01/26 04:47:35;;;;;;;27.63;10.93;;;6.50;99.90;;;;;;5031684;28;20367;-49
2024/01/26 04:50:01;;;;;;;32.23;11.77;;;6.50;99.90;;;;;;5036690;28;20211;-49
2024/01/26 04:52:28;;;;;;;33.70;11.40;;;6.50;99.90;;;;;;5008480;28;20200;-50
2024/01/26 04:54:55;;;;;;;33.17;12.80;;;6.50;99.90;;;;;;5040368;28;20295;-51
2024/01/26 04:57:22;;;;;;;34.30;11.13;;;6.50;99.90;;;;;;5031263;28;20204;-51
2024/01/26 04:59:51;;;;;;;33.90;11.40;;;6.60;99.90;;;;;;5040600;28;20198;-48
2024/01/26 05:02:18;;;;;;;34.03;12.77;;;6.60;99.90;;;;;;5041193;28;20208;-51
2024/01/26 05:04:44;;;;;;;27.90;11.77;;;6.60;99.90;;;;;;5033327;28;20188;-48
2024/01/26 05:07:11;;;;;;;27.07;11.23;;;6.60;99.90;;;;;;5030640;28;20208;-49
2024/01/26 05:09:39;;;;;;;26.57;11.83;;;6.60;99.90;;;;;;5012495;28;20221;-52
2024/01/26 05:12:06;;;;;;;34.70;11.63;;;6.70;99.90;;;;;;5040151;28;20669;-50
2024/01/26 05:14:34;;;;;;;33.40;12.17;;;6.70;99.90;;;;;;5035168;28;20206;-48
2024/01/26 05:17:02;;;;;;;36.63;11.80;;;6.70;99.90;;;;;;5039453;28;20215;-50
2024/01/26 05:19:29;;;;;;;28.47;12.07;;;6.70;99.90;;;;;;5040117;28;20198;-52
2024/01/26 05:21:56;;;;;;;29.37;11.80;;;6.70;99.90;;;;;;5032285;28;20228;-48
2024/01/26 05:24:23;;;;;;;32.43;13.70;;;6.70;99.90;;;;;;5003721;28;20264;-53
2024/01/26 05:26:50;;;;;;;29.97;12.23;;;6.80;99.90;;;;;;5051174;28;20199;-48
2024/01/26 05:29:16;;;;;;;28.97;11.87;;;6.80;99.90;;;;;;5041336;28;20627;-51
2024/01/26 05:31:43;;;;;;;30.20;12.67;;;6.80;99.90;;;;;;5043877;28;20275;-49
2024/01/26 05:34:11;;;;;;;32.23;12.73;;;6.80;99.90;;;;;;5043378;28;20570;-52
2024/01/26 05:36:42;;;;;;;29.17;12.87;;;6.80;99.90;;;;;;5032570;28;20213;-49
2024/01/26 05:39:09;;;;;;;38.00;13.77;;;6.80;99.90;;;;;;5038668;28;20195;-50
2024/01/26 05:41:36;;;;;;;31.60;12.37;;;6.90;99.90;;;;;;5010097;28;20241;-51
2024/01/26 05:44:03;;;;;;;33.33;12.57;;;6.90;99.90;;;;;;5038396;28;20872;-49
2024/01/26 05:46:30;;;;;;;34.47;12.83;;;6.90;99.90;;;;;;5038615;28;20200;-48
2024/01/26 05:48:57;;;;;;;30.60;13.27;;;7.00;99.90;;;;;;5037764;28;20191;-51
2024/01/26 05:51:25;;;;;;;38.80;13.77;;;6.90;99.90;;;;;;5035378;28;20243;-48
2024/01/26 05:53:53;;;;;;;32.10;14.43;;;7.00;99.90;;;;;;5036172;28;20269;-50
2024/01/26 05:56:20;;;;;;;29.37;12.60;;;7.00;99.90;;;;;;5002044;28;20204;-48
2024/01/26 05:58:47;;;;;;;32.50;13.53;;;7.00;99.90;;;;;;5039594;28;21387;-53
2024/01/26 06:01:13;;;;;;;34.07;14.37;;;7.10;99.90;;;;;;5026938;28;20293;-49
2024/01/26 06:03:40;;;;;;;34.50;13.70;;;7.10;99.90;;;;;;5039310;28;20196;-48
2024/01/26 06:06:07;;;;;;;37.50;14.37;;;7.10;99.90;;;;;;5035044;28;20265;-49
2024/01/26 06:08:36;;;;;;;35.87;14.63;;;7.10;99.90;;;;;;5028272;28;20672;-52
2024/01/26 06:11:05;;;;;;;37.83;14.30;;;7.10;99.90;;;;;;5003670;28;20238;-52
2024/01/26 06:13:32;;;;;;;30.93;14.90;;;7.20;99.90;;;;;;5032933;28;20208;-50
2024/01/26 06:15:59;;;;;;;35.53;15.23;;;7.20;99.90;;;;;;5036555;28;20259;-51
2024/01/26 06:18:25;;;;;;;34.47;14.87;;;7.20;99.90;;;;;;5029575;28;20247;-51
2024/01/26 06:20:52;;;;;;;36.60;14.30;;;7.20;99.90;;;;;;5036761;28;20239;-55
2024/01/26 06:23:19;;;;;;;39.77;14.53;;;7.20;99.90;;;;;;5029547;28;20909;-51
2024/01/26 06:25:48;;;;;;;37.60;15.77;;;7.30;99.90;;;;;;5033485;28;20570;-49
2024/01/26 06:28:15;;;;;;;43.70;16.27;;;7.30;99.90;;;;;;5015211;28;20187;-51
2024/01/26 06:30:41;;;;;;;38.03;15.53;;;7.30;99.90;;;;;;5034823;28;20778;-51
2024/01/26 06:33:08;;;;;;;30.70;15.20;;;7.30;99.90;;;;;;5026835;28;20207;-52
2024/01/26 06:35:35;;;;;;;38.53;15.70;;;7.30;99.90;;;;;;5034970;28;20204;-49
2024/01/26 06:38:02;;;;;;;45.13;16.20;;;7.40;99.90;;;;;;5036290;28;20280;-47
2024/01/26 06:40:29;;;;;;;44.43;17.47;;;7.40;99.90;;;;;;5025823;28;20251;-50
2024/01/26 06:42:57;;;;;;;39.77;16.93;;;7.40;99.90;;;;;;5005180;28;20256;-54
2024/01/26 06:45:24;;;;;;;41.37;15.80;;;7.50;99.90;;;;;;5037672;28;20932;-51
2024/01/26 06:47:51;;;;;;;42.37;15.33;;;7.50;99.90;;;;;;5033958;28;20199;-48
2024/01/26 06:50:17;;;;;;;42.33;16.60;;;7.50;99.90;;;;;;5033685;28;20227;-49
2024/01/26 06:52:44;;;;;;;45.60;16.83;;;7.50;99.90;;;;;;5040533;28;20660;-50
2024/01/26 06:55:11;;;;;;;39.07;18.27;;;7.50;99.90;;;;;;5029960;28;20204;-49
2024/01/26 06:57:38;;;;;;;44.17;17.23;;;7.50;99.90;;;;;;5010750;28;20703;-49
2024/01/26 07:00:09;;;;;;;36.73;17.07;;;7.60;99.90;;;;;;5027297;28;20220;-47
2024/01/26 07:02:36;;;;;;;42.40;17.50;;;7.70;99.90;;;;;;5026377;28;20203;-48
2024/01/26 07:05:04;;;;;;;40.03;16.90;;;7.70;99.90;;;;;;5027577;28;20196;-49
2024/01/26 07:07:29;;;;;;;35.73;16.73;;;7.70;99.90;;;;;;5026130;28;20206;-52
2024/01/26 07:09:56;;;;;;;44.00;17.20;;;7.70;99.90;;;;;;5029064;28;20967;-48
2024/01/26 07:12:23;;;;;;;40.03;16.83;;;7.70;99.90;;;;;;5033464;28;20211;-49
2024/01/26 07:14:50;;;;;;;38.20;16.93;;;7.70;99.90;;;;;;5002663;28;20207;-50
2024/01/26 07:17:18;;;;;;;45.00;18.27;;;7.80;99.90;;;;;;5021190;28;20292;-51
2024/01/26 07:19:45;;;;;;;44.73;18.43;;;7.80;99.90;;;;;;5028935;28;20206;-52
2024/01/26 07:22:12;;;;;;;34.00;16.10;;;7.80;99.90;;;;;;5020516;28;20452;-52
2024/01/26 07:24:39;;;;;;;45.40;18.77;;;7.80;99.90;;;;;;5031305;28;20253;-51
2024/01/26 07:27:06;;;;;;;38.03;18.10;;;7.80;99.90;;;;;;5031371;28;20211;-51
2024/01/26 07:29:33;;;;;;;37.50;18.43;;;7.90;99.90;;;;;;4992074;28;21070;-49
2024/01/26 07:32:00;;;;;;;43.43;19.03;;;7.90;99.90;;;;;;5024360;28;20305;-49
2024/01/26 07:34:28;;;;;;;37.67;18.63;;;8.00;99.90;;;;;;5018320;28;20749;-49
2024/01/26 07:36:55;;;;;;;42.97;19.37;;;8.00;99.90;;;;;;5010349;28;20204;-48
2024/01/26 07:39:22;;;;;;;39.63;18.47;;;8.10;99.90;;;;;;5029199;28;20211;-47
2024/01/26 07:41:49;;;;;;;42.60;19.33;;;8.10;99.90;;;;;;5031251;28;20215;-48
2024/01/26 07:44:16;;;;;;;36.87;20.17;;;8.10;99.90;;;;;;5010280;28;20268;-47
2024/01/26 07:46:43;;;;;;;39.10;19.23;;;8.20;99.90;;;;;;5030803;28;20962;-50
2024/01/26 07:49:09;;;;;;;40.30;19.87;;;8.20;99.90;;;;;;5032376;28;20568;-48
2024/01/26 07:51:38;;;;;;;38.97;18.93;;;8.20;99.90;;;;;;5018822;28;20224;-47
2024/01/26 07:54:05;;;;;;;36.97;19.07;;;8.20;99.90;;;;;;5033863;28;20203;-48
2024/01/26 07:56:32;;;;;;;38.57;19.40;;;8.30;99.90;;;;;;5034103;28;20722;-47
2024/01/26 07:58:58;;;;;;;35.07;18.63;;;8.30;99.90;;;;;;5008639;28;20215;-50
2024/01/26 08:01:25;;;;;;;40.17;18.30;;;8.40;99.90;;;;;;5045078;28;20211;-51
2024/01/26 08:03:52;;;;;;;35.47;19.87;;;8.40;99.90;;;;;;5035366;28;20890;-48
2024/01/26 08:06:19;;;;;;;38.07;20.10;;;8.50;99.90;;;;;;5034787;28;20195;-47
2024/01/26 08:08:47;;;;;;;35.87;20.50;;;8.50;99.90;;;;;;5022156;28;20199;-49
2024/01/26 08:11:14;;;;;;;35.07;19.20;;;8.50;99.90;;;;;;5027253;28;20224;-48
2024/01/26 08:13:41;;;;;;;36.93;18.80;;;8.60;99.90;;;;;;5028599;28;20272;-47
2024/01/26 08:16:08;;;;;;;39.57;20.50;;;8.60;99.90;;;;;;5003301;28;20215;-49
2024/01/26 08:18:34;;;;;;;35.10;18.80;;;8.70;99.90;;;;;;5027890;28;20211;-54
2024/01/26 08:21:01;;;;;;;34.43;19.77;;;8.70;99.90;;;;;;5020013;28;20215;-50
2024/01/26 08:23:28;;;;;;;34.30;18.33;;;8.80;99.90;;;;;;5022640;28;20203;-50
2024/01/26 08:25:56;;;;;;;30.17;17.10;;;8.80;99.90;;;;;;5027235;28;20265;-48
2024/01/26 08:28:23;;;;;;;32.90;17.17;;;8.90;99.90;;;;;;5036711;28;20668;-49
2024/01/26 08:30:50;;;;;;;29.63;17.77;;;9.00;99.90;;;;;;5002612;28;20286;-46
2024/01/26 08:33:17;;;;;;;29.30;17.63;;;9.00;99.90;;;;;;5030001;28;20205;-50
2024/01/26 08:35:44;;;;;;;30.73;17.57;;;9.10;99.90;;;;;;5028726;28;20187;-48
2024/01/26 08:38:10;;;;;;;32.23;18.43;;;9.10;99.90;;;;;;5023836;28;20364;-47
2024/01/26 08:40:37;;;;;;;28.27;16.10;;;9.10;99.90;;;;;;5015340;28;20223;-47
2024/01/26 08:43:06;;;;;;;28.80;17.83;;;9.20;99.90;;;;;;5033132;28;20257;-47
2024/01/26 08:45:33;;;;;;;29.40;17.97;;;9.20;99.90;;;;;;5009692;28;20196;-50
2024/01/26 08:48:00;;;;;;;29.40;17.50;;;9.20;99.90;;;;;;5039243;28;20196;-49
2024/01/26 08:50:27;;;;;;;29.87;18.13;;;9.20;99.90;;;;;;5031525;28;20223;-48
2024/01/26 08:52:53;;;;;;;27.60;16.90;;;9.20;99.90;;;;;;5012874;28;20219;-47
2024/01/26 08:55:20;;;;;;;31.37;16.73;;;9.20;99.90;;;;;;5025965;28;20261;-50
2024/01/26 08:57:48;;;;;;;25.00;16.00;;;9.30;99.90;;;;;;5024501;28;20219;-47
2024/01/26 09:00:19;;;;;;;26.67;15.43;;;9.30;99.90;;;;;;5037170;28;20219;-50
2024/01/26 09:02:46;;;;;;;25.70;16.80;;;9.30;99.90;;;;;;5010240;28;20192;-46
2024/01/26 09:05:13;;;;;;;26.67;15.20;;;9.30;99.90;;;;;;5022615;28;20278;-54
2024/01/26 09:07:39;;;;;;;22.70;13.67;;;9.30;99.90;;;;;;5020822;28;20191;-49
2024/01/26 09:10:07;;;;;;;22.60;13.83;;;9.30;99.90;;;;;;5026675;28;20216;-50
2024/01/26 09:12:35;;;;;;;21.80;12.73;;;9.30;99.90;;;;;;5029032;28;20203;-51
2024/01/26 09:15:02;;;;;;;21.87;13.47;;;9.30;99.90;;;;;;5043481;28;20685;-47
2024/01/26 09:17:30;;;;;;;19.90;12.97;;;9.40;99.90;;;;;;5009057;28;20196;-47
2024/01/26 09:19:57;;;;;;;20.77;12.23;;;9.40;99.90;;;;;;5029545;28;20215;-49
2024/01/26 09:22:24;;;;;;;22.47;13.70;;;9.30;99.90;;;;;;5029379;28;20196;-51
2024/01/26 09:24:51;;;;;;;23.40;13.47;;;9.30;99.90;;;;;;5025819;28;20215;-49
2024/01/26 09:27:19;;;;;;;24.13;13.63;;;9.30;99.90;;;;;;5037014;28;20199;-47
2024/01/26 09:29:46;;;;;;;20.93;13.43;;;9.40;99.90;;;;;;5030246;28;20187;-48
2024/01/26 09:32:13;;;;;;;20.03;12.77;;;9.30;99.90;;;;;;5010038;28;20269;-48
2024/01/26 09:34:41;;;;;;;19.40;13.37;;;9.30;99.90;;;;;;5028349;28;20249;-48
2024/01/26 09:37:08;;;;;;;20.53;11.17;;;9.40;99.90;;;;;;5037803;28;20195;-48
2024/01/26 09:39:35;;;;;;;18.53;12.07;;;9.40;99.90;;;;;;5024903;28;20211;-50
2024/01/26 09:42:02;;;;;;;17.53;12.33;;;9.40;99.90;;;;;;5024422;28;20211;-48
2024/01/26 09:44:29;;;;;;;20.50;11.60;;;9.40;99.90;;;;;;5028743;28;20863;-51
2024/01/26 09:46:57;;;;;;;17.07;11.43;;;9.40;99.90;;;;;;5027704;28;20203;-48
2024/01/26 09:49:28;;;;;;;15.90;10.20;;;9.40;99.90;;;;;;5015331;28;20196;-48
2024/01/26 09:51:57;;;;;;;16.67;12.03;;;9.40;99.90;;;;;;5035094;28;20207;-46
2024/01/26 09:54:24;;;;;;;15.07;10.67;;;9.40;99.90;;;;;;5026823;28;20214;-47
2024/01/26 09:56:52;;;;;;;15.00;10.63;;;9.40;99.90;;;;;;5025949;28;20316;-49
2024/01/26 09:59:19;;;;;;;16.53;9.60;;;9.40;99.90;;;;;;5025398;28;20227;-47
2024/01/26 10:01:49;;;;;;;15.30;10.23;;;9.40;99.90;;;;;;5046299;28;20229;-49
2024/01/26 10:04:16;;;;;;;15.40;10.00;;;9.40;99.90;;;;;;5010342;28;20904;-47
2024/01/26 10:06:43;;;;;;;17.13;10.10;;;9.50;99.90;;;;;;5028990;28;20872;-47
2024/01/26 10:09:12;;;;;;;13.90;10.10;;;9.50;99.90;;;;;;5016520;28;20266;-46
2024/01/26 10:11:39;;;;;;;17.80;10.73;;;9.50;99.90;;;;;;5026682;28;21002;-46
2024/01/26 10:14:07;;;;;;;15.43;10.17;;;9.50;99.90;;;;;;5028430;28;20206;-47
2024/01/26 10:16:33;;;;;;;14.70;10.10;;;9.60;99.90;;;;;;5025838;28;20206;-46
2024/01/26 10:19:00;;;;;;;13.70;9.67;;;9.60;99.90;;;;;;5006737;28;20258;-47
2024/01/26 10:21:27;;;;;;;14.27;10.87;;;9.60;99.90;;;;;;5031622;28;20251;-50
2024/01/26 10:23:54;;;;;;;15.50;10.40;;;9.60;99.90;;;;;;5035614;28;20199;-48
2024/01/26 10:26:22;;;;;;;14.20;9.70;;;9.60;99.90;;;;;;5028877;28;20207;-52
2024/01/26 10:28:50;;;;;;;14.27;10.87;;;9.60;99.90;;;;;;5031566;28;20196;-48
2024/01/26 10:31:17;;;;;;;14.70;10.77;;;9.70;99.90;;;;;;5026229;28;20276;-52
2024/01/26 10:33:46;;;;;;;12.43;9.30;;;9.70;99.90;;;;;;5001769;28;22253;-49
2024/01/26 10:36:14;;;;;;;14.80;10.20;;;9.70;99.90;;;;;;5037710;28;20199;-48
2024/01/26 10:38:41;;;;;;;14.37;10.07;;;9.70;99.90;;;;;;5027587;28;20537;-48
2024/01/26 10:41:13;;;;;;;16.63;10.40;;;9.70;99.90;;;;;;5036011;28;20226;-51
2024/01/26 10:43:44;;;;;;;11.77;8.60;;;9.80;99.90;;;;;;5021064;28;21004;-49
2024/01/26 10:46:12;;;;;;;12.67;8.50;;;9.80;99.90;;;;;;5036873;28;20209;-49
2024/01/26 10:48:40;;;;;;;13.33;8.17;;;9.80;99.90;;;;;;5025484;28;20832;-49
2024/01/26 10:51:07;;;;;;;9.83;8.10;;;9.90;99.90;;;;;;5009294;28;20223;-50
2024/01/26 10:53:35;;;;;;;10.20;7.70;;;9.90;99.90;;;;;;5033717;28;20513;-48
2024/01/26 10:56:04;;;;;;;10.07;8.10;;;9.90;99.90;;;;;;5027053;28;20281;-49
2024/01/26 10:58:31;;;;;;;9.70;7.67;;;9.90;99.90;;;;;;5023115;28;20223;-50
2024/01/26 11:01:00;;;;;;;8.53;7.63;;;10.00;99.90;;;;;;5032232;28;20216;-50
2024/01/26 11:03:27;;;;;;;8.77;7.63;;;10.00;99.90;;;;;;5021608;28;20581;-54
2024/01/26 11:05:55;;;;;;;7.73;6.87;;;10.00;99.90;;;;;;5002839;28;20210;-49
2024/01/26 11:08:24;;;;;;;9.97;7.10;;;10.10;99.90;;;;;;5030567;28;20552;-52
2024/01/26 11:10:52;;;;;;;7.83;6.83;;;10.10;99.90;;;;;;5027705;28;21281;-46
2024/01/26 11:13:19;;;;;;;8.13;6.90;;;10.10;99.90;;;;;;5027306;28;20192;-53
2024/01/26 11:15:47;;;;;;;6.87;6.03;;;10.10;99.90;;;;;;4997703;28;20782;-56
2024/01/26 11:18:26;;;;;;;6.60;5.90;;;10.10;99.90;;;;;;5026724;28;20213;-48
2024/01/26 11:20:53;;;;;;;7.20;5.60;;;10.20;99.90;;;;;;4995302;28;20319;-52
2024/01/26 11:23:21;;;;;;;6.47;5.60;;;10.20;99.90;;;;;;5019608;28;20204;-52
2024/01/26 11:25:50;;;;;;;6.80;5.60;;;10.20;99.90;;;;;;5026017;28;20543;-48
2024/01/26 11:28:19;;;;;;;6.13;5.53;;;10.20;99.90;;;;;;5031827;28;20223;-51
2024/01/26 11:30:52;;;;;;;5.90;5.27;;;10.20;99.90;;;;;;5028406;28;20692;-49
2024/01/26 11:33:21;;;;;;;5.90;4.90;;;10.20;99.90;;;;;;5029557;28;20205;-50
2024/01/26 11:35:50;;;;;;;5.40;4.90;;;10.20;99.90;;;;;;5013887;28;20289;-53
2024/01/26 11:38:18;;;;;;;4.93;4.43;;;10.20;99.90;;;;;;5027073;28;20660;-50
2024/01/26 11:40:46;;;;;;;4.73;4.33;;;10.30;99.90;;;;;;5038726;28;20302;-48
2024/01/26 11:43:13;;;;;;;5.43;4.93;;;10.30;99.90;;;;;;5028573;28;20214;-55
2024/01/26 11:45:45;;;;;;;2.27;2.07;;;10.30;99.90;;;;;;5026608;28;20278;-52
2024/01/26 11:48:13;;;;;;;2.10;1.90;;;10.20;99.90;;;;;;5025498;28;20211;-49
2024/01/26 11:50:42;;;;;;;2.00;1.33;;;10.10;99.90;;;;;;5031853;28;20290;-52
2024/01/26 11:53:10;;;;;;;1.63;1.20;;;10.10;99.90;;;;;;5005914;28;20822;-48
2024/01/26 11:55:38;;;;;;;3.70;1.00;;;10.10;99.90;;;;;;5021926;28;20191;-48
2024/01/26 11:58:06;;;;;;;2.97;1.10;;;10.00;99.90;;;;;;5024296;28;20299;-51
2024/01/26 12:00:33;;;;;;;9.17;1.50;;;9.90;99.90;;;;;;5032709;28;20341;-52
2024/01/26 12:03:00;;;;;;;4.50;1.30;;;9.80;99.90;;;;;;5033470;28;20233;-53
2024/01/26 12:05:27;;;;;;;7.07;1.90;;;9.70;99.90;;;;;;5025427;28;20199;-48
2024/01/26 12:07:55;;;;;;;8.90;1.87;;;9.70;99.90;;;;;;4995494;28;20230;-49
2024/01/26 12:10:24;;;;;;;7.53;2.00;;;9.70;99.90;;;;;;5035401;28;20671;-49
2024/01/26 12:12:51;;;;;;;13.63;3.33;;;9.50;99.90;;;;;;5025147;28;20716;-48
2024/01/26 12:15:18;;;;;;;8.77;2.50;;;9.50;99.90;;;;;;5029047;28;20582;-52
2024/01/26 12:17:48;;;;;;;8.83;2.30;;;9.40;99.90;;;;;;5031197;28;20953;-50
2024/01/26 12:20:15;;;;;;;8.13;3.40;;;9.30;99.90;;;;;;5025872;28;20226;-50
2024/01/26 12:22:43;;;;;;;12.77;2.70;;;9.20;99.90;;;;;;5004251;28;20226;-52
2024/01/26 12:25:14;;;;;;;16.90;2.80;;;9.20;99.90;;;;;;5037039;28;20202;-49
2024/01/26 12:27:42;;;;;;;14.97;3.03;;;9.10;99.90;;;;;;5026432;28;20214;-49
2024/01/26 12:30:11;;;;;;;13.00;2.63;;;9.10;99.90;;;;;;5028410;28;20211;-51
2024/01/26 12:32:38;;;;;;;14.67;2.77;;;9.00;99.90;;;;;;5030627;28;20201;-53
2024/01/26 12:35:05;;;;;;;13.43;3.67;;;8.90;99.90;;;;;;5022845;28;20273;-54
2024/01/26 12:37:32;;;;;;;12.20;2.90;;;8.80;99.90;;;;;;5002100;28;20204;-54
2024/01/26 12:39:59;;;;;;;15.97;2.73;;;8.80;99.90;;;;;;5028229;28;20328;-51